sensor_id;sensor_type;location;lat;lon;timestamp;P1;durP1;ratioP1;P2;durP2;ratioP2
10005;SDS011;5042;42.626;23.382;2023-03-23T00:00:11;26.20;;;16.00;;
10005;SDS011;5042;42.626;23.382;2023-03-23T00:02:39;23.50;;;14.43;;
10005;SDS011;5042;42.626;23.382;2023-03-23T00:05:08;23.23;;;14.13;;
10005;SDS011;5042;42.626;23.382;2023-03-23T00:07:35;20.17;;;12.90;;
10005;SDS011;5042;42.626;23.382;2023-03-23T00:10:02;17.27;;;12.73;;
10005;SDS011;5042;42.626;23.382;2023-03-23T00:12:30;19.07;;;12.73;;
10005;SDS011;5042;42.626;23.382;2023-03-23T00:14:59;18.63;;;12.87;;
10005;SDS011;5042;42.626;23.382;2023-03-23T00:17:27;15.27;;;10.33;;
10005;SDS011;5042;42.626;23.382;2023-03-23T00:19:54;11.47;;;9.23;;
10005;SDS011;5042;42.626;23.382;2023-03-23T00:22:22;13.63;;;10.17;;
10005;SDS011;5042;42.626;23.382;2023-03-23T00:24:50;12.80;;;9.07;;
10005;SDS011;5042;42.626;23.382;2023-03-23T00:27:17;12.73;;;9.00;;
10005;SDS011;5042;42.626;23.382;2023-03-23T00:29:46;14.33;;;8.97;;
10005;SDS011;5042;42.626;23.382;2023-03-23T00:32:17;11.63;;;7.43;;
10005;SDS011;5042;42.626;23.382;2023-03-23T00:34:45;11.43;;;7.50;;
10005;SDS011;5042;42.626;23.382;2023-03-23T00:37:13;9.17;;;6.63;;
10005;SDS011;5042;42.626;23.382;2023-03-23T00:39:43;9.20;;;6.40;;
10005;SDS011;5042;42.626;23.382;2023-03-23T00:42:11;9.30;;;7.03;;
10005;SDS011;5042;42.626;23.382;2023-03-23T00:44:39;11.43;;;7.37;;
10005;SDS011;5042;42.626;23.382;2023-03-23T00:47:06;9.27;;;6.87;;
10005;SDS011;5042;42.626;23.382;2023-03-23T00:49:35;9.90;;;6.47;;
10005;SDS011;5042;42.626;23.382;2023-03-23T00:52:03;11.63;;;6.90;;
10005;SDS011;5042;42.626;23.382;2023-03-23T00:54:31;9.27;;;6.67;;
10005;SDS011;5042;42.626;23.382;2023-03-23T00:56:59;9.33;;;6.63;;
10005;SDS011;5042;42.626;23.382;2023-03-23T00:59:26;8.93;;;6.47;;
10005;SDS011;5042;42.626;23.382;2023-03-23T01:01:53;9.07;;;5.87;;
10005;SDS011;5042;42.626;23.382;2023-03-23T01:04:20;9.50;;;6.63;;
10005;SDS011;5042;42.626;23.382;2023-03-23T01:06:48;9.13;;;6.87;;
10005;SDS011;5042;42.626;23.382;2023-03-23T01:09:17;10.10;;;6.70;;
10005;SDS011;5042;42.626;23.382;2023-03-23T01:11:46;7.53;;;6.33;;
10005;SDS011;5042;42.626;23.382;2023-03-23T01:14:16;11.67;;;7.67;;
10005;SDS011;5042;42.626;23.382;2023-03-23T01:16:44;8.17;;;6.53;;
10005;SDS011;5042;42.626;23.382;2023-03-23T01:19:11;10.03;;;6.73;;
10005;SDS011;5042;42.626;23.382;2023-03-23T01:21:39;11.20;;;7.57;;
10005;SDS011;5042;42.626;23.382;2023-03-23T01:24:06;9.63;;;6.67;;
10005;SDS011;5042;42.626;23.382;2023-03-23T01:26:33;11.03;;;7.83;;
10005;SDS011;5042;42.626;23.382;2023-03-23T01:29:00;10.37;;;7.50;;
10005;SDS011;5042;42.626;23.382;2023-03-23T01:31:28;10.70;;;8.37;;
10005;SDS011;5042;42.626;23.382;2023-03-23T01:33:55;13.87;;;9.17;;
10005;SDS011;5042;42.626;23.382;2023-03-23T01:36:23;13.23;;;9.40;;
10005;SDS011;5042;42.626;23.382;2023-03-23T01:38:51;15.30;;;10.03;;
10005;SDS011;5042;42.626;23.382;2023-03-23T01:41:19;16.03;;;10.63;;
10005;SDS011;5042;42.626;23.382;2023-03-23T01:43:59;19.40;;;11.73;;
10005;SDS011;5042;42.626;23.382;2023-03-23T01:46:30;18.83;;;12.03;;
10005;SDS011;5042;42.626;23.382;2023-03-23T01:48:59;17.30;;;12.07;;
10005;SDS011;5042;42.626;23.382;2023-03-23T01:51:31;17.13;;;12.33;;
10005;SDS011;5042;42.626;23.382;2023-03-23T01:54:02;22.33;;;14.20;;
10005;SDS011;5042;42.626;23.382;2023-03-23T01:56:34;22.40;;;14.10;;
10005;SDS011;5042;42.626;23.382;2023-03-23T01:59:06;21.27;;;12.67;;
10005;SDS011;5042;42.626;23.382;2023-03-23T02:01:35;17.43;;;11.03;;
10005;SDS011;5042;42.626;23.382;2023-03-23T02:04:04;16.17;;;10.77;;
10005;SDS011;5042;42.626;23.382;2023-03-23T02:06:32;19.97;;;11.63;;
10005;SDS011;5042;42.626;23.382;2023-03-23T02:08:59;17.47;;;12.07;;
10005;SDS011;5042;42.626;23.382;2023-03-23T02:11:27;16.07;;;10.80;;
10005;SDS011;5042;42.626;23.382;2023-03-23T02:13:54;20.30;;;12.67;;
10005;SDS011;5042;42.626;23.382;2023-03-23T02:16:23;16.60;;;11.20;;
10005;SDS011;5042;42.626;23.382;2023-03-23T02:19:00;19.23;;;12.30;;
10005;SDS011;5042;42.626;23.382;2023-03-23T02:30:48;23.23;;;13.60;;
10005;SDS011;5042;42.626;23.382;2023-03-23T02:33:40;21.23;;;13.67;;
10005;SDS011;5042;42.626;23.382;2023-03-23T02:36:14;22.63;;;12.43;;
10005;SDS011;5042;42.626;23.382;2023-03-23T02:38:55;21.23;;;13.67;;
10005;SDS011;5042;42.626;23.382;2023-03-23T02:41:28;21.67;;;12.70;;
10005;SDS011;5042;42.626;23.382;2023-03-23T02:43:58;18.57;;;11.83;;
10005;SDS011;5042;42.626;23.382;2023-03-23T02:46:28;18.93;;;11.30;;
10005;SDS011;5042;42.626;23.382;2023-03-23T02:48:57;18.73;;;11.00;;
10005;SDS011;5042;42.626;23.382;2023-03-23T02:51:25;16.90;;;11.57;;
10005;SDS011;5042;42.626;23.382;2023-03-23T02:53:54;16.80;;;10.93;;
10005;SDS011;5042;42.626;23.382;2023-03-23T02:56:22;17.50;;;10.57;;
10005;SDS011;5042;42.626;23.382;2023-03-23T02:58:51;18.27;;;11.10;;
10005;SDS011;5042;42.626;23.382;2023-03-23T03:04:28;15.47;;;10.13;;
10005;SDS011;5042;42.626;23.382;2023-03-23T03:07:07;16.53;;;10.30;;
10005;SDS011;5042;42.626;23.382;2023-03-23T03:09:42;17.77;;;9.73;;
10005;SDS011;5042;42.626;23.382;2023-03-23T03:12:15;18.43;;;10.90;;
10005;SDS011;5042;42.626;23.382;2023-03-23T03:14:51;14.33;;;9.30;;
10005;SDS011;5042;42.626;23.382;2023-03-23T03:17:24;15.33;;;9.30;;
10005;SDS011;5042;42.626;23.382;2023-03-23T03:19:54;12.53;;;8.07;;
10005;SDS011;5042;42.626;23.382;2023-03-23T03:22:25;11.30;;;8.70;;
10005;SDS011;5042;42.626;23.382;2023-03-23T03:24:55;9.20;;;6.67;;
10005;SDS011;5042;42.626;23.382;2023-03-23T03:27:23;13.80;;;8.93;;
10005;SDS011;5042;42.626;23.382;2023-03-23T03:29:53;11.30;;;7.73;;
10005;SDS011;5042;42.626;23.382;2023-03-23T03:32:24;13.93;;;8.63;;
10005;SDS011;5042;42.626;23.382;2023-03-23T03:34:59;11.87;;;7.93;;
10005;SDS011;5042;42.626;23.382;2023-03-23T03:37:26;8.87;;;7.47;;
10005;SDS011;5042;42.626;23.382;2023-03-23T03:39:53;13.50;;;8.27;;
10005;SDS011;5042;42.626;23.382;2023-03-23T03:42:20;11.23;;;7.67;;
10005;SDS011;5042;42.626;23.382;2023-03-23T03:44:47;16.53;;;8.67;;
10005;SDS011;5042;42.626;23.382;2023-03-23T03:47:14;11.37;;;8.50;;
10005;SDS011;5042;42.626;23.382;2023-03-23T03:49:40;14.03;;;9.17;;
10005;SDS011;5042;42.626;23.382;2023-03-23T03:52:08;15.30;;;9.33;;
10005;SDS011;5042;42.626;23.382;2023-03-23T03:54:35;16.73;;;9.70;;
10005;SDS011;5042;42.626;23.382;2023-03-23T03:57:02;12.17;;;8.13;;
10005;SDS011;5042;42.626;23.382;2023-03-23T03:59:29;13.60;;;8.93;;
10005;SDS011;5042;42.626;23.382;2023-03-23T04:01:57;14.90;;;10.13;;
10005;SDS011;5042;42.626;23.382;2023-03-23T04:04:24;14.47;;;10.37;;
10005;SDS011;5042;42.626;23.382;2023-03-23T04:06:51;13.57;;;9.20;;
10005;SDS011;5042;42.626;23.382;2023-03-23T04:09:19;14.13;;;9.50;;
10005;SDS011;5042;42.626;23.382;2023-03-23T04:11:46;13.13;;;9.33;;
10005;SDS011;5042;42.626;23.382;2023-03-23T04:14:13;14.40;;;9.53;;
10005;SDS011;5042;42.626;23.382;2023-03-23T04:16:40;15.53;;;9.50;;
10005;SDS011;5042;42.626;23.382;2023-03-23T04:19:08;16.27;;;9.33;;
10005;SDS011;5042;42.626;23.382;2023-03-23T04:21:35;13.67;;;9.37;;
10005;SDS011;5042;42.626;23.382;2023-03-23T04:24:02;12.07;;;8.67;;
10005;SDS011;5042;42.626;23.382;2023-03-23T04:26:30;12.70;;;8.20;;
10005;SDS011;5042;42.626;23.382;2023-03-23T04:28:57;12.67;;;8.23;;
10005;SDS011;5042;42.626;23.382;2023-03-23T04:31:24;14.97;;;8.90;;
10005;SDS011;5042;42.626;23.382;2023-03-23T04:33:51;18.13;;;9.63;;
10005;SDS011;5042;42.626;23.382;2023-03-23T04:36:18;14.47;;;9.10;;
10005;SDS011;5042;42.626;23.382;2023-03-23T04:38:47;14.83;;;9.93;;
10005;SDS011;5042;42.626;23.382;2023-03-23T04:41:19;13.30;;;9.33;;
10005;SDS011;5042;42.626;23.382;2023-03-23T04:43:48;15.97;;;9.47;;
10005;SDS011;5042;42.626;23.382;2023-03-23T04:46:18;15.17;;;8.93;;
10005;SDS011;5042;42.626;23.382;2023-03-23T04:48:46;13.47;;;9.20;;
10005;SDS011;5042;42.626;23.382;2023-03-23T04:51:13;13.37;;;8.73;;
10005;SDS011;5042;42.626;23.382;2023-03-23T04:53:40;9.93;;;7.77;;
10005;SDS011;5042;42.626;23.382;2023-03-23T04:56:07;13.33;;;8.57;;
10005;SDS011;5042;42.626;23.382;2023-03-23T04:58:33;10.80;;;7.70;;
10005;SDS011;5042;42.626;23.382;2023-03-23T05:01:01;9.07;;;6.63;;
10005;SDS011;5042;42.626;23.382;2023-03-23T05:03:30;10.97;;;7.67;;
10005;SDS011;5042;42.626;23.382;2023-03-23T05:05:57;11.60;;;7.43;;
10005;SDS011;5042;42.626;23.382;2023-03-23T05:08:27;11.33;;;7.40;;
10005;SDS011;5042;42.626;23.382;2023-03-23T05:10:54;10.67;;;7.33;;
10005;SDS011;5042;42.626;23.382;2023-03-23T05:13:22;10.43;;;7.53;;
10005;SDS011;5042;42.626;23.382;2023-03-23T05:15:49;10.27;;;7.13;;
10005;SDS011;5042;42.626;23.382;2023-03-23T05:18:18;9.87;;;6.57;;
10005;SDS011;5042;42.626;23.382;2023-03-23T05:20:45;9.40;;;6.47;;
10005;SDS011;5042;42.626;23.382;2023-03-23T05:23:13;11.07;;;7.13;;
10005;SDS011;5042;42.626;23.382;2023-03-23T05:25:40;10.37;;;7.43;;
10005;SDS011;5042;42.626;23.382;2023-03-23T05:28:07;9.77;;;7.20;;
10005;SDS011;5042;42.626;23.382;2023-03-23T05:30:35;11.87;;;7.63;;
10005;SDS011;5042;42.626;23.382;2023-03-23T05:33:03;9.97;;;7.43;;
10005;SDS011;5042;42.626;23.382;2023-03-23T05:35:32;10.33;;;7.53;;
10005;SDS011;5042;42.626;23.382;2023-03-23T05:37:59;12.80;;;8.83;;
10005;SDS011;5042;42.626;23.382;2023-03-23T05:40:27;11.57;;;8.60;;
10005;SDS011;5042;42.626;23.382;2023-03-23T05:42:53;8.23;;;6.13;;
10005;SDS011;5042;42.626;23.382;2023-03-23T05:45:22;10.10;;;7.37;;
10005;SDS011;5042;42.626;23.382;2023-03-23T05:47:49;9.00;;;7.67;;
10005;SDS011;5042;42.626;23.382;2023-03-23T05:50:16;11.80;;;7.17;;
10005;SDS011;5042;42.626;23.382;2023-03-23T05:52:45;11.27;;;7.90;;
10005;SDS011;5042;42.626;23.382;2023-03-23T05:55:11;11.27;;;7.63;;
10005;SDS011;5042;42.626;23.382;2023-03-23T05:57:39;11.40;;;7.77;;
10005;SDS011;5042;42.626;23.382;2023-03-23T06:00:06;10.40;;;6.73;;
10005;SDS011;5042;42.626;23.382;2023-03-23T06:02:44;14.23;;;8.43;;
10005;SDS011;5042;42.626;23.382;2023-03-23T06:05:11;13.63;;;9.03;;
10005;SDS011;5042;42.626;23.382;2023-03-23T06:07:38;14.33;;;10.00;;
10005;SDS011;5042;42.626;23.382;2023-03-23T06:10:08;14.13;;;9.13;;
10005;SDS011;5042;42.626;23.382;2023-03-23T06:12:35;14.60;;;9.27;;
10005;SDS011;5042;42.626;23.382;2023-03-23T06:15:02;12.67;;;8.87;;
10005;SDS011;5042;42.626;23.382;2023-03-23T06:17:33;13.47;;;8.90;;
10005;SDS011;5042;42.626;23.382;2023-03-23T06:20:01;13.20;;;8.87;;
10005;SDS011;5042;42.626;23.382;2023-03-23T06:22:34;12.83;;;9.57;;
10005;SDS011;5042;42.626;23.382;2023-03-23T06:25:03;13.93;;;9.33;;
10005;SDS011;5042;42.626;23.382;2023-03-23T06:27:32;13.60;;;8.93;;
10005;SDS011;5042;42.626;23.382;2023-03-23T06:30:00;11.87;;;8.27;;
10005;SDS011;5042;42.626;23.382;2023-03-23T06:32:28;12.63;;;9.17;;
10005;SDS011;5042;42.626;23.382;2023-03-23T06:34:56;11.70;;;8.80;;
10005;SDS011;5042;42.626;23.382;2023-03-23T06:37:23;13.50;;;8.93;;
10005;SDS011;5042;42.626;23.382;2023-03-23T06:39:50;11.60;;;8.73;;
10005;SDS011;5042;42.626;23.382;2023-03-23T06:42:17;15.47;;;9.07;;
10005;SDS011;5042;42.626;23.382;2023-03-23T06:44:46;10.53;;;7.50;;
10005;SDS011;5042;42.626;23.382;2023-03-23T06:47:12;12.33;;;7.90;;
10005;SDS011;5042;42.626;23.382;2023-03-23T06:49:39;9.83;;;7.53;;
10005;SDS011;5042;42.626;23.382;2023-03-23T06:52:06;11.50;;;7.23;;
10005;SDS011;5042;42.626;23.382;2023-03-23T06:54:33;14.33;;;9.93;;
10005;SDS011;5042;42.626;23.382;2023-03-23T06:57:00;18.20;;;12.00;;
10005;SDS011;5042;42.626;23.382;2023-03-23T06:59:26;17.27;;;11.40;;
10005;SDS011;5042;42.626;23.382;2023-03-23T07:01:55;17.33;;;11.47;;
10005;SDS011;5042;42.626;23.382;2023-03-23T07:04:22;15.70;;;11.17;;
10005;SDS011;5042;42.626;23.382;2023-03-23T07:06:49;15.53;;;12.00;;
10005;SDS011;5042;42.626;23.382;2023-03-23T07:09:16;14.23;;;10.63;;
10005;SDS011;5042;42.626;23.382;2023-03-23T07:11:42;16.20;;;12.27;;
10005;SDS011;5042;42.626;23.382;2023-03-23T07:14:12;16.63;;;11.33;;
10005;SDS011;5042;42.626;23.382;2023-03-23T07:16:40;16.43;;;10.37;;
10005;SDS011;5042;42.626;23.382;2023-03-23T07:19:08;15.80;;;11.40;;
10005;SDS011;5042;42.626;23.382;2023-03-23T07:21:35;17.10;;;11.67;;
10005;SDS011;5042;42.626;23.382;2023-03-23T07:24:02;17.87;;;12.33;;
10005;SDS011;5042;42.626;23.382;2023-03-23T07:26:29;16.13;;;12.07;;
10005;SDS011;5042;42.626;23.382;2023-03-23T07:28:56;15.57;;;11.93;;
10005;SDS011;5042;42.626;23.382;2023-03-23T07:31:23;18.77;;;12.25;;
10005;SDS011;5042;42.626;23.382;2023-03-23T07:33:50;17.90;;;12.52;;
10005;SDS011;5042;42.626;23.382;2023-03-23T07:36:18;17.48;;;12.32;;
10005;SDS011;5042;42.626;23.382;2023-03-23T07:38:45;16.47;;;12.03;;
10005;SDS011;5042;42.626;23.382;2023-03-23T07:41:13;16.90;;;12.90;;
10005;SDS011;5042;42.626;23.382;2023-03-23T07:43:40;17.17;;;11.77;;
10005;SDS011;5042;42.626;23.382;2023-03-23T07:46:07;18.20;;;12.80;;
10005;SDS011;5042;42.626;23.382;2023-03-23T07:48:34;16.33;;;12.67;;
10005;SDS011;5042;42.626;23.382;2023-03-23T07:51:01;15.53;;;11.27;;
10005;SDS011;5042;42.626;23.382;2023-03-23T07:53:29;15.97;;;12.03;;
10005;SDS011;5042;42.626;23.382;2023-03-23T07:55:55;19.33;;;12.20;;
10005;SDS011;5042;42.626;23.382;2023-03-23T07:58:23;17.37;;;11.80;;
10005;SDS011;5042;42.626;23.382;2023-03-23T08:00:51;16.70;;;11.23;;
10005;SDS011;5042;42.626;23.382;2023-03-23T08:03:19;15.15;;;11.45;;
10005;SDS011;5042;42.626;23.382;2023-03-23T08:05:45;17.57;;;11.87;;
10005;SDS011;5042;42.626;23.382;2023-03-23T08:08:12;15.40;;;12.13;;
10005;SDS011;5042;42.626;23.382;2023-03-23T08:10:41;15.83;;;11.33;;
10005;SDS011;5042;42.626;23.382;2023-03-23T08:13:07;16.23;;;11.57;;
10005;SDS011;5042;42.626;23.382;2023-03-23T08:15:35;16.83;;;10.48;;
10005;SDS011;5042;42.626;23.382;2023-03-23T08:18:03;12.43;;;9.77;;
10005;SDS011;5042;42.626;23.382;2023-03-23T08:20:31;13.80;;;9.82;;
10005;SDS011;5042;42.626;23.382;2023-03-23T08:22:58;11.85;;;9.25;;
10005;SDS011;5042;42.626;23.382;2023-03-23T08:25:25;11.18;;;8.52;;
10005;SDS011;5042;42.626;23.382;2023-03-23T08:27:54;13.05;;;8.13;;
10005;SDS011;5042;42.626;23.382;2023-03-23T08:30:21;11.43;;;7.38;;
10005;SDS011;5042;42.626;23.382;2023-03-23T08:32:49;11.00;;;7.95;;
10005;SDS011;5042;42.626;23.382;2023-03-23T08:35:17;12.52;;;8.07;;
10005;SDS011;5042;42.626;23.382;2023-03-23T08:37:45;10.98;;;8.10;;
10005;SDS011;5042;42.626;23.382;2023-03-23T08:40:16;10.95;;;8.18;;
10005;SDS011;5042;42.626;23.382;2023-03-23T08:42:44;10.52;;;7.25;;
10005;SDS011;5042;42.626;23.382;2023-03-23T08:45:14;10.77;;;7.30;;
10005;SDS011;5042;42.626;23.382;2023-03-23T08:47:43;9.07;;;7.30;;
10005;SDS011;5042;42.626;23.382;2023-03-23T08:50:12;10.18;;;7.22;;
10005;SDS011;5042;42.626;23.382;2023-03-23T08:52:41;11.25;;;7.75;;
10005;SDS011;5042;42.626;23.382;2023-03-23T08:55:09;11.15;;;8.35;;
10005;SDS011;5042;42.626;23.382;2023-03-23T08:57:36;6.32;;;5.28;;
10005;SDS011;5042;42.626;23.382;2023-03-23T09:00:04;5.18;;;3.97;;
10005;SDS011;5042;42.626;23.382;2023-03-23T09:02:40;5.80;;;4.32;;
10005;SDS011;5042;42.626;23.382;2023-03-23T09:05:08;6.30;;;4.75;;
10005;SDS011;5042;42.626;23.382;2023-03-23T09:07:36;7.70;;;5.28;;
10005;SDS011;5042;42.626;23.382;2023-03-23T09:10:03;8.90;;;5.55;;
10005;SDS011;5042;42.626;23.382;2023-03-23T09:12:30;6.97;;;5.75;;
10005;SDS011;5042;42.626;23.382;2023-03-23T09:14:57;7.53;;;5.05;;
10005;SDS011;5042;42.626;23.382;2023-03-23T09:17:24;6.30;;;5.05;;
10005;SDS011;5042;42.626;23.382;2023-03-23T09:19:52;5.80;;;4.40;;
10005;SDS011;5042;42.626;23.382;2023-03-23T09:22:19;7.72;;;4.65;;
10005;SDS011;5042;42.626;23.382;2023-03-23T09:24:48;7.07;;;4.50;;
10005;SDS011;5042;42.626;23.382;2023-03-23T09:27:16;6.93;;;4.30;;
10005;SDS011;5042;42.626;23.382;2023-03-23T09:29:44;5.70;;;4.00;;
10005;SDS011;5042;42.626;23.382;2023-03-23T09:32:13;5.72;;;4.50;;
10005;SDS011;5042;42.626;23.382;2023-03-23T09:34:40;8.07;;;4.90;;
10005;SDS011;5042;42.626;23.382;2023-03-23T09:37:09;5.40;;;4.82;;
10005;SDS011;5042;42.626;23.382;2023-03-23T09:39:38;5.90;;;4.57;;
10005;SDS011;5042;42.626;23.382;2023-03-23T09:42:18;5.18;;;4.13;;
10005;SDS011;5042;42.626;23.382;2023-03-23T09:45:10;5.50;;;4.57;;
10005;SDS011;5042;42.626;23.382;2023-03-23T09:47:46;4.18;;;3.58;;
10005;SDS011;5042;42.626;23.382;2023-03-23T09:50:23;5.55;;;4.22;;
10005;SDS011;5042;42.626;23.382;2023-03-23T09:52:58;6.30;;;4.50;;
10005;SDS011;5042;42.626;23.382;2023-03-23T09:55:29;6.55;;;4.63;;
10005;SDS011;5042;42.626;23.382;2023-03-23T09:57:57;4.60;;;4.07;;
10005;SDS011;5042;42.626;23.382;2023-03-23T10:00:29;5.90;;;4.43;;
10005;SDS011;5042;42.626;23.382;2023-03-23T10:03:00;7.35;;;4.78;;
10005;SDS011;5042;42.626;23.382;2023-03-23T10:05:33;5.30;;;4.22;;
10005;SDS011;5042;42.626;23.382;2023-03-23T10:08:05;5.15;;;4.32;;
10005;SDS011;5042;42.626;23.382;2023-03-23T10:10:39;9.82;;;6.80;;
10005;SDS011;5042;42.626;23.382;2023-03-23T10:13:15;5.75;;;4.50;;
10005;SDS011;5042;42.626;23.382;2023-03-23T10:15:48;4.95;;;3.63;;
10005;SDS011;5042;42.626;23.382;2023-03-23T10:18:17;4.22;;;3.75;;
10005;SDS011;5042;42.626;23.382;2023-03-23T10:20:51;7.80;;;4.22;;
10005;SDS011;5042;42.626;23.382;2023-03-23T10:23:43;5.95;;;4.10;;
10005;SDS011;5042;42.626;23.382;2023-03-23T10:26:20;4.30;;;3.90;;
10005;SDS011;5042;42.626;23.382;2023-03-23T10:28:54;5.88;;;4.35;;
10005;SDS011;5042;42.626;23.382;2023-03-23T10:31:24;6.53;;;4.35;;
10005;SDS011;5042;42.626;23.382;2023-03-23T10:33:55;6.35;;;4.10;;
10005;SDS011;5042;42.626;23.382;2023-03-23T10:36:26;4.88;;;4.20;;
10005;SDS011;5042;42.626;23.382;2023-03-23T10:38:57;5.43;;;4.00;;
10005;SDS011;5042;42.626;23.382;2023-03-23T10:41:26;5.47;;;4.07;;
10005;SDS011;5042;42.626;23.382;2023-03-23T10:43:53;5.30;;;3.92;;
10005;SDS011;5042;42.626;23.382;2023-03-23T10:46:24;5.20;;;4.43;;
10005;SDS011;5042;42.626;23.382;2023-03-23T10:48:56;5.55;;;4.30;;
10005;SDS011;5042;42.626;23.382;2023-03-23T10:51:27;5.43;;;4.67;;
10005;SDS011;5042;42.626;23.382;2023-03-23T10:54:02;5.83;;;4.63;;
10005;SDS011;5042;42.626;23.382;2023-03-23T10:56:35;4.47;;;4.07;;
10005;SDS011;5042;42.626;23.382;2023-03-23T10:59:14;4.75;;;4.05;;
10005;SDS011;5042;42.626;23.382;2023-03-23T11:01:45;7.43;;;4.67;;
10005;SDS011;5042;42.626;23.382;2023-03-23T11:04:15;4.83;;;4.20;;
10005;SDS011;5042;42.626;23.382;2023-03-23T11:06:44;7.15;;;4.60;;
10005;SDS011;5042;42.626;23.382;2023-03-23T11:09:15;7.43;;;4.55;;
10005;SDS011;5042;42.626;23.382;2023-03-23T11:11:47;3.95;;;3.47;;
10005;SDS011;5042;42.626;23.382;2023-03-23T11:14:17;6.38;;;3.95;;
10005;SDS011;5042;42.626;23.382;2023-03-23T11:16:49;6.05;;;4.45;;
10005;SDS011;5042;42.626;23.382;2023-03-23T11:19:21;9.02;;;5.90;;
10005;SDS011;5042;42.626;23.382;2023-03-23T11:21:50;6.45;;;4.32;;
10005;SDS011;5042;42.626;23.382;2023-03-23T11:24:22;5.33;;;4.40;;
10005;SDS011;5042;42.626;23.382;2023-03-23T11:26:49;4.85;;;4.03;;
10005;SDS011;5042;42.626;23.382;2023-03-23T11:29:18;6.15;;;5.03;;
10005;SDS011;5042;42.626;23.382;2023-03-23T11:31:49;5.05;;;4.35;;
10005;SDS011;5042;42.626;23.382;2023-03-23T11:34:19;7.05;;;4.30;;
10005;SDS011;5042;42.626;23.382;2023-03-23T11:36:48;5.47;;;4.45;;
10005;SDS011;5042;42.626;23.382;2023-03-23T11:39:20;5.72;;;4.63;;
10005;SDS011;5042;42.626;23.382;2023-03-23T11:41:50;4.13;;;3.72;;
10005;SDS011;5042;42.626;23.382;2023-03-23T11:44:17;4.55;;;3.70;;
10005;SDS011;5042;42.626;23.382;2023-03-23T11:46:48;5.78;;;3.35;;
10005;SDS011;5042;42.626;23.382;2023-03-23T11:49:30;5.55;;;4.25;;
10005;SDS011;5042;42.626;23.382;2023-03-23T11:52:09;5.80;;;4.28;;
10005;SDS011;5042;42.626;23.382;2023-03-23T11:54:42;4.82;;;4.35;;
10005;SDS011;5042;42.626;23.382;2023-03-23T11:57:15;5.72;;;4.32;;
10005;SDS011;5042;42.626;23.382;2023-03-23T11:59:43;5.95;;;4.03;;
10005;SDS011;5042;42.626;23.382;2023-03-23T12:02:30;4.72;;;4.07;;
10005;SDS011;5042;42.626;23.382;2023-03-23T12:08:00;5.82;;;3.88;;
10005;SDS011;5042;42.626;23.382;2023-03-23T12:10:39;5.53;;;3.67;;
10005;SDS011;5042;42.626;23.382;2023-03-23T12:13:15;6.27;;;4.17;;
10005;SDS011;5042;42.626;23.382;2023-03-23T12:15:56;5.30;;;3.87;;
10005;SDS011;5042;42.626;23.382;2023-03-23T12:18:38;7.53;;;3.80;;
10005;SDS011;5042;42.626;23.382;2023-03-23T12:21:14;5.00;;;4.32;;
10005;SDS011;5042;42.626;23.382;2023-03-23T12:23:49;4.47;;;4.00;;
10005;SDS011;5042;42.626;23.382;2023-03-23T12:26:27;4.10;;;3.70;;
10005;SDS011;5042;42.626;23.382;2023-03-23T12:29:04;4.15;;;3.75;;
10005;SDS011;5042;42.626;23.382;2023-03-23T12:31:50;4.68;;;3.72;;
10005;SDS011;5042;42.626;23.382;2023-03-23T12:34:28;5.88;;;4.30;;
10005;SDS011;5042;42.626;23.382;2023-03-23T12:37:06;4.75;;;4.07;;
10005;SDS011;5042;42.626;23.382;2023-03-23T12:39:53;5.95;;;4.57;;
10005;SDS011;5042;42.626;23.382;2023-03-23T12:42:36;5.47;;;4.35;;
10005;SDS011;5042;42.626;23.382;2023-03-23T12:45:15;5.18;;;3.92;;
10005;SDS011;5042;42.626;23.382;2023-03-23T12:47:49;6.25;;;3.97;;
10005;SDS011;5042;42.626;23.382;2023-03-23T12:50:20;4.60;;;3.95;;
10005;SDS011;5042;42.626;23.382;2023-03-23T12:52:55;5.22;;;3.80;;
10005;SDS011;5042;42.626;23.382;2023-03-23T12:55:27;4.38;;;3.97;;
10005;SDS011;5042;42.626;23.382;2023-03-23T12:58:04;5.72;;;4.28;;
10005;SDS011;5042;42.626;23.382;2023-03-23T13:00:35;4.53;;;3.85;;
10005;SDS011;5042;42.626;23.382;2023-03-23T13:03:17;6.85;;;4.07;;
10005;SDS011;5042;42.626;23.382;2023-03-23T13:05:49;6.38;;;4.43;;
10005;SDS011;5042;42.626;23.382;2023-03-23T13:08:21;4.60;;;4.18;;
10005;SDS011;5042;42.626;23.382;2023-03-23T13:10:53;6.63;;;4.05;;
10005;SDS011;5042;42.626;23.382;2023-03-23T13:13:26;5.45;;;4.28;;
10005;SDS011;5042;42.626;23.382;2023-03-23T13:16:11;5.55;;;3.85;;
10005;SDS011;5042;42.626;23.382;2023-03-23T13:18:47;6.38;;;4.30;;
10005;SDS011;5042;42.626;23.382;2023-03-23T13:21:22;5.13;;;4.20;;
10005;SDS011;5042;42.626;23.382;2023-03-23T13:23:54;7.38;;;4.47;;
10005;SDS011;5042;42.626;23.382;2023-03-23T13:26:24;4.47;;;3.67;;
10005;SDS011;5042;42.626;23.382;2023-03-23T13:28:56;4.50;;;4.05;;
10005;SDS011;5042;42.626;23.382;2023-03-23T13:31:27;4.30;;;3.90;;
10005;SDS011;5042;42.626;23.382;2023-03-23T13:33:59;20.63;;;14.48;;
10005;SDS011;5042;42.626;23.382;2023-03-23T13:36:30;10.52;;;7.30;;
10005;SDS011;5042;42.626;23.382;2023-03-23T13:38:59;3.88;;;3.13;;
10005;SDS011;5042;42.626;23.382;2023-03-23T13:41:29;4.72;;;3.47;;
10005;SDS011;5042;42.626;23.382;2023-03-23T13:46:56;5.50;;;4.13;;
10005;SDS011;5042;42.626;23.382;2023-03-23T13:49:31;4.15;;;3.85;;
10005;SDS011;5042;42.626;23.382;2023-03-23T13:51:59;4.20;;;3.80;;
10005;SDS011;5042;42.626;23.382;2023-03-23T13:54:38;4.25;;;3.85;;
10005;SDS011;5042;42.626;23.382;2023-03-23T13:57:20;5.40;;;3.78;;
10005;SDS011;5042;42.626;23.382;2023-03-23T13:59:57;5.55;;;4.47;;
10005;SDS011;5042;42.626;23.382;2023-03-23T14:02:32;5.80;;;4.63;;
10005;SDS011;5042;42.626;23.382;2023-03-23T14:05:27;5.17;;;4.20;;
10005;SDS011;5042;42.626;23.382;2023-03-23T14:07:59;4.43;;;3.53;;
10005;SDS011;5042;42.626;23.382;2023-03-23T14:10:32;6.07;;;4.60;;
10005;SDS011;5042;42.626;23.382;2023-03-23T14:13:01;4.18;;;3.70;;
10005;SDS011;5042;42.626;23.382;2023-03-23T14:15:31;6.30;;;4.30;;
10005;SDS011;5042;42.626;23.382;2023-03-23T14:18:11;5.00;;;4.40;;
10005;SDS011;5042;42.626;23.382;2023-03-23T14:20:41;4.97;;;4.30;;
10005;SDS011;5042;42.626;23.382;2023-03-23T14:23:14;5.33;;;4.07;;
10005;SDS011;5042;42.626;23.382;2023-03-23T14:25:42;9.10;;;4.10;;
10005;SDS011;5042;42.626;23.382;2023-03-23T14:28:18;8.98;;;4.40;;
10005;SDS011;5042;42.626;23.382;2023-03-23T14:30:48;4.90;;;3.92;;
10005;SDS011;5042;42.626;23.382;2023-03-23T14:33:19;5.28;;;3.78;;
10005;SDS011;5042;42.626;23.382;2023-03-23T14:35:47;6.17;;;4.27;;
10005;SDS011;5042;42.626;23.382;2023-03-23T14:38:15;6.22;;;4.35;;
10005;SDS011;5042;42.626;23.382;2023-03-23T14:40:44;6.03;;;3.80;;
10005;SDS011;5042;42.626;23.382;2023-03-23T14:43:13;6.78;;;4.20;;
10005;SDS011;5042;42.626;23.382;2023-03-23T14:45:42;4.05;;;3.65;;
10005;SDS011;5042;42.626;23.382;2023-03-23T14:48:12;4.50;;;3.83;;
10005;SDS011;5042;42.626;23.382;2023-03-23T14:50:41;5.03;;;3.92;;
10005;SDS011;5042;42.626;23.382;2023-03-23T14:53:16;4.68;;;3.75;;
10005;SDS011;5042;42.626;23.382;2023-03-23T14:55:46;7.60;;;4.32;;
10005;SDS011;5042;42.626;23.382;2023-03-23T14:58:14;5.18;;;4.30;;
10005;SDS011;5042;42.626;23.382;2023-03-23T15:00:43;6.60;;;4.65;;
10005;SDS011;5042;42.626;23.382;2023-03-23T15:03:15;5.72;;;4.22;;
10005;SDS011;5042;42.626;23.382;2023-03-23T15:05:44;5.93;;;4.18;;
10005;SDS011;5042;42.626;23.382;2023-03-23T15:08:19;5.00;;;3.90;;
10005;SDS011;5042;42.626;23.382;2023-03-23T15:10:55;6.13;;;4.00;;
10005;SDS011;5042;42.626;23.382;2023-03-23T15:13:29;4.47;;;3.90;;